createdAt,value
2023-02-03T00:00:45.028Z,75.55
2023-02-03T00:01:47.433Z,75.50
2023-02-03T00:02:49.838Z,75.45
2023-02-03T00:03:52.187Z,75.51
2023-02-03T00:04:54.549Z,75.57
2023-02-03T00:05:57.103Z,75.55
2023-02-03T00:06:59.564Z,75.48
2023-02-03T00:08:03.573Z,75.48
2023-02-03T00:09:06.021Z,75.43
2023-02-03T00:10:08.845Z,75.37
2023-02-03T00:11:11.171Z,75.27
2023-02-03T00:12:14.059Z,75.22
2023-02-03T00:13:16.479Z,75.18
2023-02-03T00:14:18.819Z,74.99
2023-02-03T00:15:23.285Z,74.85
2023-02-03T00:16:25.699Z,74.63
2023-02-03T00:17:28.140Z,74.53
2023-02-03T00:18:30.479Z,74.49
2023-02-03T00:19:32.849Z,74.38
2023-02-03T00:20:35.240Z,74.33
2023-02-03T00:21:37.576Z,74.37
2023-02-03T00:22:39.932Z,74.34
2023-02-03T00:23:42.793Z,74.25
2023-02-03T00:24:45.146Z,74.22
2023-02-03T00:25:47.511Z,74.14
2023-02-03T00:26:50.005Z,73.96
2023-02-03T00:27:52.375Z,73.98
2023-02-03T00:28:54.682Z,73.77
2023-02-03T00:29:57.100Z,73.67
2023-02-03T00:30:59.433Z,73.66
2023-02-03T00:32:01.946Z,73.61
2023-02-03T00:33:04.873Z,73.31
2023-02-03T00:34:07.593Z,73.32
2023-02-03T00:35:09.928Z,73.31
2023-02-03T00:36:12.602Z,73.23
2023-02-03T00:37:15.001Z,73.12
2023-02-03T00:38:17.362Z,73.11
2023-02-03T00:39:19.701Z,72.97
2023-02-03T00:40:25.205Z,72.87
2023-02-03T00:41:30.399Z,72.93
2023-02-03T00:42:34.694Z,72.80
2023-02-03T00:43:37.012Z,72.78
2023-02-03T00:44:39.357Z,72.65
2023-02-03T00:45:42.280Z,72.59
2023-02-03T00:46:44.600Z,72.55
2023-02-03T00:47:46.894Z,72.44
2023-02-03T00:48:49.249Z,72.34
2023-02-03T00:49:51.723Z,72.28
2023-02-03T00:50:54.103Z,72.36
2023-02-03T00:51:56.449Z,72.31
2023-02-03T00:52:58.788Z,72.21
2023-02-03T00:54:01.289Z,72.21
2023-02-03T00:55:04.593Z,72.25
2023-02-03T00:56:12.622Z,72.11
2023-02-03T00:57:15.084Z,72.09
2023-02-03T00:58:17.557Z,72.07
2023-02-03T00:59:19.894Z,72.08
2023-02-03T01:00:24.877Z,72.07
2023-02-03T01:01:27.391Z,71.92
2023-02-03T01:02:29.854Z,71.93
2023-02-03T01:03:32.287Z,71.97
2023-02-03T01:04:34.612Z,72.02
2023-02-03T01:05:37.780Z,71.85
2023-02-03T01:06:40.665Z,71.91
2023-02-03T01:07:42.969Z,71.79
2023-02-03T01:08:46.301Z,71.82
2023-02-03T01:09:48.630Z,71.85
2023-02-03T01:10:50.995Z,71.90
2023-02-03T01:11:53.382Z,71.85
2023-02-03T01:12:55.769Z,71.69
2023-02-03T01:14:01.681Z,71.70
2023-02-03T01:15:04.403Z,71.61
2023-02-03T01:16:10.579Z,71.61
2023-02-03T01:17:12.950Z,71.53
2023-02-03T01:18:15.600Z,71.42
2023-02-03T01:19:18.101Z,71.45
2023-02-03T01:20:21.699Z,71.44
2023-02-03T01:21:26.100Z,71.46
2023-02-03T01:22:31.770Z,71.41
2023-02-03T01:23:35.057Z,71.37
2023-02-03T01:24:37.537Z,71.42
2023-02-03T01:25:39.864Z,71.36
2023-02-03T01:26:42.741Z,71.33
2023-02-03T01:27:45.128Z,71.16
2023-02-03T01:28:54.517Z,71.32
2023-02-03T01:29:56.835Z,71.21
2023-02-03T01:31:10.247Z,71.27
2023-02-03T01:32:12.739Z,71.32
2023-02-03T01:33:15.051Z,71.28
2023-02-03T01:34:18.612Z,71.41
2023-02-03T01:35:20.986Z,71.40
2023-02-03T01:36:26.077Z,71.42
2023-02-03T01:37:28.429Z,71.40
2023-02-03T01:38:30.834Z,71.44
2023-02-03T01:39:33.189Z,71.35
2023-02-03T01:40:43.285Z,71.36
2023-02-03T01:41:46.182Z,71.44
2023-02-03T01:42:48.524Z,71.53
2023-02-03T01:43:54.023Z,71.58
2023-02-03T01:44:57.720Z,71.17
2023-02-03T01:46:05.543Z,71.32
2023-02-03T01:47:18.923Z,71.30
2023-02-03T01:48:21.270Z,71.06
2023-02-03T01:49:29.076Z,70.95
2023-02-03T01:50:35.017Z,70.86
2023-02-03T01:51:40.336Z,71.06
2023-02-03T01:52:45.678Z,71.11
2023-02-03T01:53:49.606Z,71.01
2023-02-03T01:54:55.137Z,71.08
2023-02-03T01:55:57.933Z,71.14
2023-02-03T01:57:16.856Z,71.10
2023-02-03T01:58:26.018Z,71.22
2023-02-03T01:59:30.142Z,71.32
2023-02-03T02:00:51.181Z,71.18
2023-02-03T02:01:56.863Z,71.15
2023-02-03T02:03:01.943Z,71.32
2023-02-03T02:04:04.903Z,71.23
2023-02-03T02:05:16.971Z,71.17
2023-02-03T02:06:19.418Z,71.14
2023-02-03T02:07:21.806Z,71.06
2023-02-03T02:08:24.197Z,71.16
2023-02-03T02:09:27.105Z,71.18
2023-02-03T02:10:33.578Z,71.27
2023-02-03T02:11:35.919Z,70.97
2023-02-03T02:12:38.325Z,70.94
2023-02-03T02:13:42.777Z,70.89
2023-02-03T02:14:46.244Z,70.88
2023-02-03T02:16:00.417Z,70.84
2023-02-03T02:17:14.403Z,70.82
2023-02-03T02:19:01.476Z,70.79
2023-02-03T02:20:30.457Z,70.84
2023-02-03T02:21:44.578Z,70.85
2023-02-03T02:23:11.724Z,70.75
2023-02-03T02:24:49.554Z,70.65
2023-02-03T02:26:16.248Z,70.67
2023-02-03T02:27:36.681Z,70.70
2023-02-03T02:28:52.515Z,70.59
2023-02-03T02:30:16.396Z,70.60
2023-02-03T02:31:18.762Z,70.41
2023-02-03T02:32:41.342Z,70.30
2023-02-03T02:34:14.990Z,69.98
2023-02-03T02:35:20.296Z,69.96
2023-02-03T02:36:33.201Z,69.96
2023-02-03T02:37:43.548Z,70.04
2023-02-03T02:39:21.630Z,70.13
2023-02-03T02:40:49.504Z,70.05
2023-02-03T02:42:32.098Z,70.12
2023-02-03T02:43:37.433Z,70.14
2023-02-03T02:44:45.580Z,70.13
2023-02-03T02:45:54.717Z,70.23
2023-02-03T02:47:06.522Z,70.43
2023-02-03T02:48:15.942Z,70.38
2023-02-03T02:49:34.579Z,70.49
2023-02-03T02:50:41.595Z,70.75
2023-02-03T02:51:45.403Z,70.86
2023-02-03T02:52:49.528Z,70.93
2023-02-03T02:53:56.163Z,71.03
2023-02-03T02:55:03.846Z,71.03
2023-02-03T02:56:10.229Z,70.99
2023-02-03T02:57:15.506Z,71.06
2023-02-03T02:58:20.025Z,71.02
2023-02-03T02:59:22.652Z,71.07
2023-02-03T03:00:25.340Z,71.07
2023-02-03T03:01:27.866Z,70.97
2023-02-03T03:02:33.997Z,70.98
2023-02-03T03:03:40.595Z,70.99
2023-02-03T03:04:46.976Z,70.87
2023-02-03T03:05:56.601Z,70.89
2023-02-03T03:07:06.682Z,70.73
2023-02-03T03:08:12.365Z,70.78
2023-02-03T03:10:01.177Z,70.83
2023-02-03T03:11:04.506Z,70.86
2023-02-03T03:12:17.307Z,70.79
2023-02-03T03:13:26.034Z,70.79
2023-02-03T03:14:31.399Z,70.74
2023-02-03T03:15:35.530Z,70.78
2023-02-03T03:16:39.672Z,70.62
2023-02-03T03:17:46.115Z,70.72
2023-02-03T03:19:01.976Z,70.67
2023-02-03T03:20:11.931Z,70.73
2023-02-03T03:21:20.124Z,70.67
2023-02-03T03:22:28.608Z,70.67
2023-02-03T03:23:34.859Z,70.61
2023-02-03T03:24:49.071Z,70.52
2023-02-03T03:25:59.797Z,70.53
2023-02-03T03:27:17.615Z,70.61
2023-02-03T03:28:26.767Z,70.50
2023-02-03T03:29:29.044Z,70.38
2023-02-03T03:30:37.619Z,70.38
2023-02-03T03:31:41.317Z,70.43
2023-02-03T03:32:44.390Z,70.41
2023-02-03T03:33:48.255Z,70.29
2023-02-03T03:34:51.300Z,70.33
2023-02-03T03:36:14.898Z,70.35
2023-02-03T03:37:45.531Z,70.15
2023-02-03T03:39:04.129Z,70.34
2023-02-03T03:40:12.757Z,69.87
2023-02-03T03:41:49.745Z,69.92
2023-02-03T03:42:58.789Z,69.86
2023-02-03T03:44:04.234Z,69.84
2023-02-03T03:45:22.666Z,69.69
2023-02-03T03:46:30.448Z,69.73
2023-02-03T03:47:44.103Z,69.64
2023-02-03T03:49:06.685Z,69.63
2023-02-03T03:50:13.964Z,69.58
2023-02-03T03:51:35.318Z,69.58
2023-02-03T03:52:39.196Z,69.43
2023-02-03T03:53:43.970Z,69.37
2023-02-03T03:54:48.233Z,69.33
2023-02-03T03:55:53.024Z,69.28
2023-02-03T03:57:02.550Z,69.20
2023-02-03T03:58:09.625Z,69.26
2023-02-03T03:59:14.570Z,69.27
2023-02-03T04:00:19.386Z,69.31
2023-02-03T04:01:23.826Z,69.14
2023-02-03T04:02:27.097Z,69.01
2023-02-03T04:03:40.243Z,68.91
2023-02-03T04:04:44.119Z,68.87
2023-02-03T04:05:46.530Z,68.95
2023-02-03T04:06:48.926Z,68.82
2023-02-03T04:07:51.281Z,68.86
2023-02-03T04:08:53.837Z,68.80
2023-02-03T04:09:56.173Z,68.94
2023-02-03T04:10:58.552Z,69.03
2023-02-03T04:12:03.493Z,68.97
2023-02-03T04:13:06.839Z,68.97
2023-02-03T04:14:09.186Z,68.92
2023-02-03T04:15:11.612Z,68.86
2023-02-03T04:16:13.981Z,68.89
2023-02-03T04:17:16.391Z,68.92
2023-02-03T04:18:18.812Z,68.87
2023-02-03T04:19:21.220Z,68.89
2023-02-03T04:20:24.942Z,68.98
2023-02-03T04:21:27.587Z,68.88
2023-02-03T04:22:29.931Z,68.81
2023-02-03T04:23:32.236Z,69.05
2023-02-03T04:24:34.546Z,69.08
2023-02-03T04:25:36.987Z,69.09
2023-02-03T04:26:39.766Z,69.02
2023-02-03T04:27:42.206Z,69.02
2023-02-03T04:28:45.094Z,69.04
2023-02-03T04:29:47.678Z,69.14
2023-02-03T04:30:50.069Z,69.17
2023-02-03T04:31:52.494Z,69.16
2023-02-03T04:32:54.900Z,69.27
2023-02-03T04:33:57.320Z,69.40
2023-02-03T04:34:59.971Z,69.42
2023-02-03T04:36:02.293Z,69.43
2023-02-03T04:37:04.678Z,69.46
2023-02-03T04:38:07.026Z,69.44
2023-02-03T04:39:09.375Z,69.59
2023-02-03T04:40:12.779Z,69.62
2023-02-03T04:41:15.167Z,69.66
2023-02-03T04:42:17.774Z,69.92
2023-02-03T04:43:20.079Z,69.80
2023-02-03T04:44:22.437Z,69.54
2023-02-03T04:45:24.880Z,69.48
2023-02-03T04:46:27.281Z,69.70
2023-02-03T04:47:29.667Z,69.70
2023-02-03T04:48:32.063Z,69.59
2023-02-03T04:49:34.432Z,69.78
2023-02-03T04:50:36.733Z,69.75
2023-02-03T04:51:39.181Z,69.73
2023-02-03T04:52:41.525Z,70.03
2023-02-03T04:53:44.105Z,69.81
2023-02-03T04:54:46.449Z,69.73
2023-02-03T04:55:49.093Z,69.69
2023-02-03T04:56:51.605Z,69.61
2023-02-03T04:57:58.075Z,69.66
2023-02-03T04:59:00.399Z,69.43
2023-02-03T05:00:02.838Z,69.44
2023-02-03T05:01:12.244Z,69.49
2023-02-03T05:02:14.717Z,69.55
2023-02-03T05:03:17.212Z,69.44
2023-02-03T05:04:19.593Z,69.59
2023-02-03T05:05:21.909Z,69.53
2023-02-03T05:06:25.925Z,69.67
2023-02-03T05:07:28.304Z,69.85
2023-02-03T05:08:31.235Z,69.78
2023-02-03T05:09:33.597Z,69.67
2023-02-03T05:10:35.997Z,69.61
2023-02-03T05:11:38.346Z,69.59
2023-02-03T05:12:40.689Z,69.74
2023-02-03T05:13:43.028Z,69.64
2023-02-03T05:14:45.397Z,69.51
2023-02-03T05:15:47.769Z,69.51
2023-02-03T05:16:50.231Z,69.54
2023-02-03T05:17:53.842Z,69.84
2023-02-03T05:18:56.416Z,70.13
2023-02-03T05:19:58.780Z,70.10
2023-02-03T05:21:01.141Z,70.10
2023-02-03T05:22:03.514Z,70.11
2023-02-03T05:23:05.936Z,70.53
2023-02-03T05:24:08.572Z,70.54
2023-02-03T05:25:10.963Z,70.46
2023-02-03T05:26:13.341Z,69.91
2023-02-03T05:27:15.735Z,69.12
2023-02-03T05:28:18.281Z,69.14
2023-02-03T05:29:20.719Z,69.46
2023-02-03T05:30:23.095Z,69.88
2023-02-03T05:31:25.563Z,70.12
2023-02-03T05:32:27.909Z,70.30
2023-02-03T05:33:30.969Z,70.54
2023-02-03T05:34:33.372Z,70.39
2023-02-03T05:35:35.984Z,70.49
2023-02-03T05:36:38.367Z,70.81
2023-02-03T05:37:40.775Z,70.79
2023-02-03T05:38:43.176Z,70.66
2023-02-03T05:39:45.543Z,70.81
2023-02-03T05:41:07.616Z,71.11
2023-02-03T05:42:09.960Z,70.37
2023-02-03T05:43:12.319Z,70.22
2023-02-03T05:44:14.753Z,70.20
2023-02-03T05:45:17.618Z,70.18
2023-02-03T05:46:20.529Z,70.20
2023-02-03T05:47:22.882Z,70.53
2023-02-03T05:48:25.190Z,70.65
2023-02-03T05:49:27.533Z,70.56
2023-02-03T05:50:33.386Z,70.31
2023-02-03T05:51:35.859Z,69.95
2023-02-03T05:52:38.254Z,69.61
2023-02-03T05:53:40.602Z,69.56
2023-02-03T05:54:42.960Z,69.45
2023-02-03T05:55:45.422Z,69.55
2023-02-03T05:56:48.048Z,69.75
2023-02-03T05:57:50.375Z,69.79
2023-02-03T05:58:53.515Z,69.75
2023-02-03T05:59:55.901Z,69.71
2023-02-03T06:00:58.306Z,69.97
2023-02-03T06:02:00.690Z,70.04
2023-02-03T06:03:03.649Z,70.04
2023-02-03T06:04:06.611Z,70.11
2023-02-03T06:05:09.412Z,69.89
2023-02-03T06:06:11.856Z,69.88
2023-02-03T06:07:14.176Z,69.83
2023-02-03T06:08:16.676Z,69.91
2023-02-03T06:09:19.010Z,70.15
2023-02-03T06:10:22.191Z,70.26
2023-02-03T06:11:24.903Z,70.30
2023-02-03T06:12:29.104Z,70.47
2023-02-03T06:13:31.834Z,70.11
2023-02-03T06:14:34.200Z,70.11
2023-02-03T06:15:36.694Z,70.00
2023-02-03T06:16:39.113Z,69.87
2023-02-03T06:17:49.030Z,69.76
2023-02-03T06:18:53.262Z,69.79
2023-02-03T06:19:55.661Z,69.72
2023-02-03T06:20:57.999Z,69.73
2023-02-03T06:22:00.385Z,69.70
2023-02-03T06:23:02.695Z,69.77
2023-02-03T06:24:05.146Z,68.94
2023-02-03T06:25:07.874Z,68.67
2023-02-03T06:26:10.590Z,68.65
2023-02-03T06:27:12.953Z,68.62
2023-02-03T06:28:15.661Z,68.58
2023-02-03T06:29:18.136Z,68.45
2023-02-03T06:30:20.870Z,68.32
2023-02-03T06:31:23.930Z,68.39
2023-02-03T06:32:26.542Z,68.44
2023-02-03T06:33:28.857Z,68.20
2023-02-03T06:34:31.265Z,67.84
2023-02-03T06:35:33.659Z,67.87
2023-02-03T06:36:37.396Z,67.98
2023-02-03T06:37:40.595Z,68.00
2023-02-03T06:38:43.092Z,67.82
2023-02-03T06:39:45.434Z,67.36
2023-02-03T06:40:48.153Z,67.06
2023-02-03T06:41:52.037Z,66.88
2023-02-03T06:42:56.507Z,66.46
2023-02-03T06:44:01.208Z,66.33
2023-02-03T06:45:05.363Z,66.31
2023-02-03T06:46:09.675Z,66.00
2023-02-03T06:47:17.006Z,66.28
2023-02-03T06:48:19.595Z,66.21
2023-02-03T06:49:22.662Z,65.82
2023-02-03T06:50:25.538Z,65.92
2023-02-03T06:51:29.938Z,65.64
2023-02-03T06:52:32.337Z,65.70
2023-02-03T06:53:39.383Z,65.79
2023-02-03T06:54:43.580Z,66.00
2023-02-03T06:55:51.447Z,66.08
2023-02-03T06:58:21.638Z,66.40
2023-02-03T06:59:24.256Z,66.54
2023-02-03T07:00:26.951Z,66.49
2023-02-03T07:01:30.925Z,66.60
2023-02-03T07:02:33.304Z,66.65
2023-02-03T07:03:35.722Z,66.87
2023-02-03T07:04:39.050Z,66.94
2023-02-03T07:05:41.494Z,67.05
2023-02-03T07:06:43.956Z,67.19
2023-02-03T07:07:46.353Z,67.43
2023-02-03T07:08:48.823Z,67.43
2023-02-03T07:09:51.396Z,67.36
2023-02-03T07:10:55.023Z,67.35
2023-02-03T07:11:57.383Z,67.58
2023-02-03T07:13:06.891Z,67.50
2023-02-03T07:14:09.444Z,67.54
2023-02-03T07:15:12.683Z,67.61
2023-02-03T07:16:15.751Z,67.69
2023-02-03T07:17:18.365Z,67.77
2023-02-03T07:18:45.476Z,67.89
2023-02-03T07:19:46.994Z,67.88
2023-02-03T07:20:49.488Z,67.91
2023-02-03T07:21:51.878Z,68.10
2023-02-03T07:22:56.305Z,68.06
2023-02-03T07:23:59.262Z,68.01
2023-02-03T07:25:01.619Z,68.02
2023-02-03T07:26:05.954Z,68.15
2023-02-03T07:27:08.264Z,68.15
2023-02-03T07:28:11.033Z,68.08
2023-02-03T07:29:13.520Z,68.03
2023-02-03T07:30:16.769Z,68.17
2023-02-03T07:31:19.336Z,68.21
2023-02-03T07:32:21.802Z,67.89
2023-02-03T07:33:24.323Z,67.84
2023-02-03T07:34:26.658Z,67.73
2023-02-03T07:35:28.990Z,67.81
2023-02-03T07:36:31.564Z,67.78
2023-02-03T07:37:34.095Z,67.77
2023-02-03T07:38:38.282Z,68.07
2023-02-03T07:39:40.796Z,67.27
2023-02-03T07:40:43.157Z,67.29
2023-02-03T07:41:45.526Z,67.31
2023-02-03T07:42:49.444Z,67.43
2023-02-03T07:43:54.043Z,67.17
2023-02-03T07:44:56.366Z,67.06
2023-02-03T07:45:58.699Z,67.20
2023-02-03T07:47:01.128Z,66.93
2023-02-03T07:48:03.645Z,66.83
2023-02-03T07:49:06.105Z,67.02
2023-02-03T07:50:09.966Z,67.07
2023-02-03T07:51:12.588Z,67.12
2023-02-03T07:52:15.050Z,67.39
2023-02-03T07:53:17.941Z,67.48
2023-02-03T07:54:20.506Z,67.58
2023-02-03T07:55:22.988Z,67.64
2023-02-03T07:56:25.383Z,67.92
2023-02-03T07:57:27.851Z,67.85
2023-02-03T07:58:30.633Z,67.85
2023-02-03T07:59:33.029Z,67.99
2023-02-03T08:00:35.857Z,68.12
2023-02-03T08:01:38.250Z,67.84
2023-02-03T08:02:42.179Z,67.83
2023-02-03T08:03:44.593Z,67.88
2023-02-03T08:04:47.032Z,67.76
2023-02-03T08:05:49.943Z,67.58
2023-02-03T08:06:52.355Z,67.39
2023-02-03T08:07:57.541Z,67.50
2023-02-03T08:08:59.934Z,67.58
2023-02-03T08:10:02.443Z,67.43
2023-02-03T08:11:05.184Z,67.36
2023-02-03T08:12:07.652Z,67.26
2023-02-03T08:13:10.035Z,67.41
2023-02-03T08:14:12.420Z,67.05
2023-02-03T08:15:15.487Z,67.02
2023-02-03T08:16:18.012Z,66.96
2023-02-03T08:17:20.443Z,67.27
2023-02-03T08:18:23.075Z,67.39
2023-02-03T08:19:25.644Z,67.57
2023-02-03T08:20:28.278Z,67.26
2023-02-03T08:21:31.194Z,67.21
2023-02-03T08:22:33.694Z,67.38
2023-02-03T08:23:36.378Z,67.27
2023-02-03T08:24:40.261Z,67.19
2023-02-03T08:25:43.240Z,67.39
2023-02-03T08:26:45.743Z,67.51
2023-02-03T08:27:48.557Z,67.22
2023-02-03T08:28:51.347Z,67.31
2023-02-03T08:29:53.881Z,67.32
2023-02-03T08:30:57.933Z,67.57
2023-02-03T08:32:00.427Z,67.63
2023-02-03T08:33:03.417Z,67.73
2023-02-03T08:34:06.171Z,67.73
2023-02-03T08:35:09.333Z,67.71
2023-02-03T08:36:11.901Z,67.78
2023-02-03T08:37:16.096Z,67.90
2023-02-03T08:38:19.072Z,68.06
2023-02-03T08:39:21.819Z,68.20
2023-02-03T08:40:24.413Z,68.19
2023-02-03T08:41:26.895Z,68.35
2023-02-03T08:42:30.215Z,68.58
2023-02-03T08:43:32.752Z,68.71
2023-02-03T08:44:35.323Z,68.72
2023-02-03T08:45:44.621Z,68.76
2023-02-03T08:46:54.782Z,68.67
2023-02-03T08:48:07.483Z,68.72
2023-02-03T08:49:11.747Z,68.91
2023-02-03T08:50:14.273Z,68.67
2023-02-03T08:51:17.326Z,68.67
2023-02-03T08:52:21.880Z,69.00
2023-02-03T08:53:24.494Z,68.94
2023-02-03T08:54:27.288Z,68.65
2023-02-03T08:55:30.423Z,68.78
2023-02-03T08:56:34.225Z,68.76
2023-02-03T08:57:37.566Z,68.54
2023-02-03T08:58:40.644Z,68.56
2023-02-03T08:59:43.945Z,68.57
2023-02-03T09:01:08.892Z,68.52
2023-02-03T09:02:15.769Z,68.55
2023-02-03T09:03:18.188Z,68.75
2023-02-03T09:04:41.774Z,68.89
2023-02-03T09:05:44.277Z,68.80
2023-02-03T09:06:50.016Z,68.95
2023-02-03T09:07:52.432Z,69.02
2023-02-03T09:08:54.816Z,69.10
2023-02-03T09:09:57.336Z,69.04
2023-02-03T09:11:00.224Z,69.10
2023-02-03T09:12:02.761Z,69.21
2023-02-03T09:13:05.215Z,69.46
2023-02-03T09:14:07.882Z,69.52
2023-02-03T09:15:10.672Z,69.89
2023-02-03T09:16:17.225Z,70.07
2023-02-03T09:17:19.793Z,70.27
2023-02-03T09:18:22.130Z,70.65
2023-02-03T09:19:24.603Z,70.86
2023-02-03T09:20:27.950Z,71.20
2023-02-03T09:21:36.043Z,71.62
2023-02-03T09:22:43.009Z,72.22
2023-02-03T09:23:46.141Z,72.87
2023-02-03T09:24:50.680Z,73.24
2023-02-03T09:25:53.013Z,73.68
2023-02-03T09:26:56.192Z,74.00
2023-02-03T09:27:58.817Z,74.48
2023-02-03T09:29:01.302Z,74.73
2023-02-03T09:30:04.172Z,75.10
2023-02-03T09:31:17.954Z,75.53
2023-02-03T09:32:20.395Z,75.99
2023-02-03T09:33:22.939Z,76.24
2023-02-03T09:34:25.361Z,76.57
2023-02-03T09:35:29.434Z,76.95
2023-02-03T09:36:33.516Z,77.33
2023-02-03T09:37:44.696Z,77.82
2023-02-03T09:38:56.115Z,78.24
2023-02-03T09:40:02.587Z,78.52
2023-02-03T09:41:18.374Z,78.79
2023-02-03T09:42:55.180Z,79.21
2023-02-03T09:44:06.699Z,79.70
2023-02-03T09:45:21.159Z,80.02
2023-02-03T09:46:35.109Z,80.31
2023-02-03T09:47:45.725Z,80.55
2023-02-03T09:48:59.853Z,80.79
2023-02-03T09:50:10.740Z,80.99
2023-02-03T09:51:34.631Z,81.23
2023-02-03T09:52:41.839Z,81.30
2023-02-03T09:53:50.080Z,81.42
2023-02-03T09:55:03.567Z,81.49
2023-02-03T09:56:06.224Z,81.57
2023-02-03T09:57:16.986Z,81.57
2023-02-03T09:58:22.994Z,81.72
2023-02-03T09:59:25.474Z,81.85
2023-02-03T10:00:33.140Z,82.04
2023-02-03T10:01:46.074Z,82.03
2023-02-03T10:03:03.667Z,82.10
2023-02-03T10:04:33.395Z,82.09
2023-02-03T10:05:48.317Z,82.17
2023-02-03T10:06:53.004Z,82.14
2023-02-03T10:08:07.726Z,82.20
2023-02-03T10:09:39.882Z,82.22
2023-02-03T10:10:50.212Z,82.10
2023-02-03T10:11:58.672Z,82.13
2023-02-03T10:13:37.251Z,82.16
2023-02-03T10:15:04.032Z,82.25
2023-02-03T10:16:22.199Z,82.25
2023-02-03T10:17:40.488Z,82.44
2023-02-03T10:18:51.024Z,82.15
2023-02-03T10:20:24.688Z,82.42
2023-02-03T10:21:47.271Z,82.46
2023-02-03T10:22:54.687Z,82.31
2023-02-03T10:23:59.750Z,82.41
2023-02-03T10:25:20.817Z,82.29
2023-02-03T10:26:27.304Z,82.40
2023-02-03T10:27:32.481Z,82.58
2023-02-03T10:28:42.475Z,82.61
2023-02-03T10:29:45.270Z,82.43
2023-02-03T10:30:54.593Z,82.21
2023-02-03T10:31:58.666Z,82.30
2023-02-03T10:33:11.897Z,82.40
2023-02-03T10:34:21.946Z,82.47
2023-02-03T10:35:40.697Z,82.25
2023-02-03T10:36:57.637Z,82.42
2023-02-03T10:38:13.824Z,82.25
2023-02-03T10:39:43.094Z,82.32
2023-02-03T10:40:46.365Z,82.22
2023-02-03T10:41:49.668Z,81.91
2023-02-03T10:43:11.702Z,81.80
2023-02-03T10:44:16.573Z,81.92
2023-02-03T10:45:20.561Z,81.93
2023-02-03T10:46:32.950Z,81.93
2023-02-03T10:47:44.063Z,81.98
2023-02-03T10:48:50.870Z,82.03
2023-02-03T10:49:55.960Z,81.91
2023-02-03T10:50:58.745Z,81.97
2023-02-03T10:52:05.136Z,82.09
2023-02-03T10:53:23.956Z,81.97
2023-02-03T10:54:28.321Z,82.09
2023-02-03T10:55:31.798Z,82.06
2023-02-03T10:56:39.008Z,82.21
2023-02-03T10:57:41.705Z,82.51
2023-02-03T10:58:54.556Z,82.19
2023-02-03T11:00:22.404Z,81.96
2023-02-03T11:01:27.958Z,81.97
2023-02-03T11:02:31.140Z,82.08
2023-02-03T11:03:34.198Z,81.97
2023-02-03T11:04:36.971Z,82.01
2023-02-03T11:05:39.365Z,82.10
2023-02-03T11:06:55.879Z,82.28
2023-02-03T11:07:58.323Z,82.26
2023-02-03T11:09:00.722Z,82.21
2023-02-03T11:10:03.102Z,82.18
2023-02-03T11:11:11.202Z,82.28
2023-02-03T11:12:16.247Z,82.11
2023-02-03T11:13:24.963Z,81.88
2023-02-03T11:14:40.579Z,81.80
2023-02-03T11:16:04.001Z,81.87
2023-02-03T11:17:16.620Z,81.71
2023-02-03T11:18:27.789Z,81.89
2023-02-03T11:19:30.985Z,82.03
2023-02-03T11:20:36.737Z,82.03
2023-02-03T11:21:39.062Z,81.84
2023-02-03T11:22:43.814Z,81.88
2023-02-03T11:23:50.803Z,81.89
2023-02-03T11:24:53.505Z,81.68
2023-02-03T11:25:56.844Z,81.58
2023-02-03T11:27:20.147Z,81.84
2023-02-03T11:28:32.542Z,81.80
2023-02-03T11:30:11.502Z,81.73
2023-02-03T11:31:27.152Z,81.63
2023-02-03T11:32:40.017Z,81.50
2023-02-03T11:33:50.720Z,81.58
2023-02-03T11:35:02.445Z,81.62
2023-02-03T11:36:07.424Z,81.83
2023-02-03T11:37:33.595Z,81.69
2023-02-03T11:38:37.023Z,81.68
2023-02-03T11:39:39.933Z,81.79
2023-02-03T11:40:43.137Z,81.92
2023-02-03T11:41:47.596Z,81.88
2023-02-03T11:42:52.176Z,81.62
2023-02-03T11:44:06.329Z,81.67
2023-02-03T11:45:38.417Z,81.39
2023-02-03T11:46:46.665Z,81.35
2023-02-03T11:48:22.299Z,81.45
2023-02-03T11:50:14.155Z,81.44
2023-02-03T11:52:11.469Z,81.65
2023-02-03T11:53:33.117Z,81.77
2023-02-03T11:56:38.111Z,81.41
2023-02-03T11:58:31.537Z,81.30
2023-02-03T12:00:03.567Z,81.32
2023-02-03T12:01:25.376Z,81.39
2023-02-03T12:02:33.849Z,81.32
2023-02-03T12:04:00.207Z,81.49
2023-02-03T12:05:28.010Z,81.41
2023-02-03T12:06:33.485Z,81.48
2023-02-03T12:07:36.422Z,81.45
2023-02-03T12:08:59.897Z,81.47
2023-02-03T12:10:13.896Z,81.45
2023-02-03T12:11:29.128Z,81.47
2023-02-03T12:12:51.755Z,81.50
2023-02-03T12:14:16.285Z,81.53
2023-02-03T12:15:56.029Z,81.44
2023-02-03T12:17:05.381Z,81.62
2023-02-03T12:18:17.784Z,81.64
2023-02-03T12:19:32.428Z,81.68
2023-02-03T12:20:38.560Z,81.73
2023-02-03T12:21:54.156Z,81.71
2023-02-03T12:23:35.882Z,81.87
2023-02-03T12:25:16.864Z,81.90
2023-02-03T12:28:35.873Z,82.29
2023-02-03T12:30:17.528Z,82.23
2023-02-03T12:31:56.051Z,82.14
2023-02-03T12:33:32.342Z,82.19
2023-02-03T12:34:45.500Z,82.21
2023-02-03T12:36:30.723Z,82.39
2023-02-03T13:00:59.939Z,82.53
2023-02-03T13:02:15.118Z,82.58
2023-02-03T13:03:42.818Z,82.64
2023-02-03T13:04:57.069Z,82.66
2023-02-03T13:06:11.506Z,82.62
2023-02-03T13:07:32.582Z,82.36
2023-02-03T13:08:45.499Z,82.45
2023-02-03T13:10:01.395Z,82.63
2023-02-03T13:11:25.494Z,82.61
2023-02-03T13:12:42.397Z,82.74
2023-02-03T13:13:55.861Z,82.96
2023-02-03T13:15:23.294Z,82.97
2023-02-03T13:16:36.459Z,82.93
2023-02-03T13:18:07.893Z,82.97
2023-02-03T13:20:18.077Z,82.74
2023-02-03T13:22:36.491Z,82.92
2023-02-03T13:26:29.592Z,83.22
2023-02-03T13:30:18.673Z,83.24
2023-02-03T13:31:36.445Z,83.11
2023-02-03T13:32:50.925Z,83.22
2023-02-03T13:34:28.870Z,83.09
2023-02-03T13:35:49.795Z,83.27
2023-02-03T13:37:13.547Z,85.64
2023-02-03T13:38:16.524Z,84.49
2023-02-03T13:39:50.194Z,83.56
2023-02-03T13:41:11.748Z,83.38
2023-02-03T13:42:25.546Z,83.15
2023-02-03T13:43:38.978Z,83.09
2023-02-03T13:44:44.320Z,83.00
2023-02-03T13:45:50.228Z,83.22
2023-02-03T13:46:53.021Z,83.31
2023-02-03T13:48:19.934Z,83.45
2023-02-03T13:49:31.557Z,83.59
2023-02-03T13:50:34.370Z,83.76
2023-02-03T13:51:43.873Z,83.73
2023-02-03T13:52:57.251Z,83.60
2023-02-03T13:54:04.551Z,83.73
2023-02-03T13:55:07.468Z,83.84
2023-02-03T13:56:23.001Z,83.83
2023-02-03T13:57:40.863Z,83.90
2023-02-03T13:58:43.430Z,84.17
2023-02-03T13:59:46.611Z,84.38
2023-02-03T14:00:51.856Z,84.58
2023-02-03T14:02:20.091Z,84.45
2023-02-03T14:03:25.317Z,84.61
2023-02-03T14:04:27.793Z,84.73
2023-02-03T14:05:42.446Z,84.84
2023-02-03T14:06:52.581Z,84.87
2023-02-03T14:07:54.914Z,84.91
2023-02-03T14:09:00.135Z,84.93
2023-02-03T14:10:14.367Z,85.21
2023-02-03T14:11:34.769Z,85.36
2023-02-03T14:12:40.056Z,85.46
2023-02-03T14:13:48.178Z,85.50
2023-02-03T14:14:50.578Z,85.61
2023-02-03T14:16:23.744Z,85.77
2023-02-03T14:17:36.940Z,85.81
2023-02-03T14:18:49.509Z,85.93
2023-02-03T14:19:52.108Z,85.97
2023-02-03T14:20:58.627Z,85.97
2023-02-03T14:22:04.405Z,85.98
2023-02-03T14:23:08.458Z,85.93
2023-02-03T14:24:12.735Z,85.97
2023-02-03T14:25:19.454Z,86.11
2023-02-03T14:26:31.875Z,86.19
2023-02-03T14:27:34.534Z,86.35
2023-02-03T14:28:47.010Z,86.35
2023-02-03T14:30:14.219Z,86.28
2023-02-03T14:31:20.458Z,86.35
2023-02-03T14:32:22.835Z,86.39
2023-02-03T14:33:47.907Z,86.53
2023-02-03T14:34:50.807Z,86.44
2023-02-03T14:35:53.245Z,86.54
2023-02-03T14:36:56.108Z,86.53
2023-02-03T14:38:04.588Z,86.54
2023-02-03T14:39:18.754Z,86.68
2023-02-03T14:40:47.315Z,86.72
2023-02-03T14:42:17.473Z,86.75
2023-02-03T14:43:24.425Z,86.85
2023-02-03T14:44:42.031Z,86.92
2023-02-03T14:46:19.524Z,86.92
2023-02-03T14:47:47.556Z,87.01
2023-02-03T14:49:04.236Z,86.83
2023-02-03T14:50:24.926Z,86.91
2023-02-03T14:51:30.267Z,87.06
2023-02-03T14:53:07.953Z,87.05
2023-02-03T14:54:16.816Z,87.14
2023-02-03T14:55:46.567Z,87.16
2023-02-03T14:57:07.726Z,87.21
2023-02-03T14:58:24.934Z,87.31
2023-02-03T14:59:43.913Z,87.32
2023-02-03T15:00:46.385Z,87.33
2023-02-03T15:01:48.760Z,87.37
2023-02-03T15:03:13.913Z,87.36
2023-02-03T15:04:16.330Z,87.38
2023-02-03T15:05:18.723Z,87.47
2023-02-03T15:06:51.418Z,87.44
2023-02-03T15:07:53.791Z,87.55
2023-02-03T15:08:59.911Z,87.47
2023-02-03T15:10:02.749Z,87.55
2023-02-03T15:11:29.476Z,87.57